Cedar Point, North Carolina
Current Conditions -  °F | °C
As of 4:57 AM on Thursday 23 Oct 2014 (Local Time) from KNJM Reporting Station
Clear Clear  
Wind Chill: 50°   Ceiling: Unl
Heat Index: 50°   Visibility: 10mi
Dew Point: 44°   Wind: 7mph
Humidity: 80%   Direction: 310°NW
Pressure: 29.97"   Gusts: NA
Location:  34.7017°N, 77.1399°W
Report Text: KNJM 230857Z AUTO 31006KT 10SM CLR 10/07 A2997 RMK AO2 SLP153 T01000067 56005 TSNO $
Loading
Personal Weather Stations






























Interactive Weather Map New forecast layout! Learn more

10-Day Weather Forecast

Advertisements
Track Severe Weather on mobile